KHBG/HBG METAR and TAF weather

Enter ICAO airport designator
Station Type Date Time Source
KHBG METAR 2022/01/27 22:53 UTC NOAA

KHBG 272253Z AUTO 00000KT 10SM CLR 16/M03 A3016 RMK AO2 SLP214 T01611028


Station Type Date Time Source
KHBG Decoded METAR 2022/01/27 22:53 UTC NOAA

HATTIESBURG CHAIN MUNICIPAL, MS, United States (KHBG) 31-16N 89-15W 44M
Jan 27, 2022 - 05:53 PM EST / 2022.01.27 2253 UTC
Wind: Calm:0
Visibility: 10 mile(s):0
Sky conditions: clear
Temperature: 61.0 F (16.1 C)
Dew Point: 27.0 F (-2.8 C)
Relative Humidity: 27%
Pressure (altimeter): 30.16 in. Hg (1021 hPa)
ob: KHBG 272253Z AUTO 00000KT 10SM CLR 16/M03 A3016 RMK AO2 SLP214 T01611028
cycle: 23

Station Type Date Time Source
KHBG TAF 2022/01/27 18:27 UTC NOAA

TAF KHBG 271725Z 2718/2818 00000KT P6SM SKC
FM281700 34011G17KT P6SM BKN250

Example: see airport list